Historyczne dane pomiarowe

Dodano dane terminowe – wersja testowa.

Dane z okresu 1951-2019

Wersja bazy: 1.34 [2019-03-16, lista zmian], aktualizacja planowana na 2019-04-15

Dane meteo z obszaru Polski uzyskane na podstawie danych udostępnionych przez Instytut Meteorologii i Gospodarki Wodnej – Państwowy Instytut Badawczy.

 

Wybierz Datę:    

       

TemperaturaWilgotnośćWiatrCiśnienieOpadyŚniegCzas trwania zjawisk
 Stacja t tx tn tng RH VA  wxwx mslp ppp RRR   cm mm wxwxwxwxwxwxwx
1987-08-14 13.8 18.9 8.0 6.0 85.3- 5.3 3.0---- 0.0------------
1987-08-13 12.3 18.6 6.4 5.0 84.5- 5.7 1.3---- 0.0------------
1987-08-12 12.5 16.3 9.0 8.6 79.5- 3.7 3.7---- 0.0------------
1987-08-11 13.6 16.6 11.4 11.4 89.5- 7.0 2.7---- 25.1------------
1987-08-10 14.7 18.3 12.4 12.6 87.5- 6.3 3.0---- 0.7------------
1987-08-09 16.0 22.3 10.2 8.0 78.8- 3.3 2.0---- 1.8------------
1987-08-08 13.0 20.8 5.6 3.6 78.0- 2.3 2.0---- 1.7------------
1987-08-07 12.3 18.0 7.7 6.9 79.0- 4.3 3.0---- 0.0------------
1987-08-06 11.2 14.3 10.0 9.4 87.8- 6.7 4.3---- 0.4------------
1987-08-05 11.9 15.9 8.0 7.0 80.3- 5.0 5.3---- 0.0------------
1987-08-04 12.3 15.4 10.8 9.0 85.3- 3.0 2.0---- 4.0------------
1987-08-03 12.2 17.8 8.4 6.6 79.8- 7.0 2.7---- 2.7------------
1987-08-02 13.2 18.1 9.6 8.6 78.5- 5.7 4.3---- 0.6------------
1987-08-01 15.0 17.6 12.4 11.6 87.8- 6.3 3.7---- 5.6------------
1987-07-31 15.1 19.0 14.0 13.0 87.8- 6.7 2.3---- 7.4------------
1987-07-30 16.4 21.7 11.6 10.2 74.5- 5.0 1.7---- 0.8------------
1987-07-29 14.1 18.4 11.4 10.2 73.5- 2.7 2.3---- 0.0------------
1987-07-28 14.0 18.0 11.4 10.6 82.0- 4.3 3.3---- 0.3------------
1987-07-27 11.3 15.4 8.2 7.4 78.8- 5.3 5.0---- 3.5------------
1987-07-26 13.3 17.4 10.8 9.8 77.5- 3.3 0.7---- 0.0------------
1987-07-25 16.4 21.5 15.0 14.8 81.3- 0.7 2.0---- 0.0------------
1987-07-24 19.1 23.8 15.3 14.6 78.3- 1.0 2.3---- 0.0------------
1987-07-23 20.2 26.0 15.0 14.0 83.8- 2.3 0.3---- 0.0------------
1987-07-22 19.1 24.0 15.5 14.8 87.8- 5.0 0.3---- 0.0------------
1987-07-21 18.7 24.5 11.0 10.0 78.0- 2.3 0.7---- 0.0------------
1987-07-20 17.3 21.8 15.7 16.4 93.5- 6.7 1.0---- 4.0------------
1987-07-19 18.8 22.8 15.9 15.4 84.3- 5.7 4.0---- 8.9------------
1987-07-18 20.3 24.4 16.5 16.4 84.8- 6.7 1.7---- 0.0------------
1987-07-17 19.2 24.8 13.8 12.8 72.5- 4.0 4.0---- 4.3------------
1987-07-16 17.5 23.1 10.6 8.2 65.8- 3.0 2.0---- 0.0------------
1987-07-15 16.5 22.0 7.8 5.6 64.3- 1.0 1.0---- 0.0------------
1987-07-14 15.5 20.1 9.8 8.6 70.5- 1.7 1.7---- 0.0------------
1987-07-13 14.8 18.2 10.8 9.2 78.3- 5.0 7.3---- 0.0------------
1987-07-12 16.0 18.4 14.4 14.6 96.3- 6.7 1.3---- 20.2------------
1987-07-11 13.3 17.4 9.2 7.4 88.8- 8.0 2.0---- 24.2------------
1987-07-10 12.6 16.4 9.6 9.1 79.0- 4.0 4.0---- 0.3------------
1987-07-09 16.2 21.2 15.0 15.8 84.0- 5.7 1.7---- 1.3------------
1987-07-08 20.7 28.0 14.0 11.4 69.0- 2.7 2.0---- 20.2------------
1987-07-07 19.9 26.0 10.4 9.0 62.5- 0.3 2.3---- 0.0------------
1987-07-06 18.4 25.0 10.6 6.0 61.0- 0.3 0.3---- 0.0------------
1987-07-05 16.5 22.0 11.2 10.2 65.0- 2.7 2.7---- 0.0------------
1987-07-04 17.6 21.8 13.2 12.5 61.0- 2.0 1.7---- 0.0------------
1987-07-03 17.6 22.5 10.6 9.0 61.8- 3.0 0.7---- 0.0------------
1987-07-02 19.4 22.8 14.8 14.4 68.8- 1.0 1.0---- 0.0------------
1987-07-01 23.5 29.8 20.1 17.4 81.8- 3.7 2.0---- 0.3------------
1987-06-30 23.6 28.6 17.9 17.0 79.0- 3.0 0.7---- 0.0------------
1987-06-29 17.5 23.6 9.6 8.4 86.5- 6.7 1.3---- 0.0------------
1987-06-28 16.3 19.4 14.5 13.0 85.8- 6.0 0.7---- 0.5------------
1987-06-27 17.2 21.0 15.0 13.2 79.8- 4.3 1.7---- 0.0------------
1987-06-26 15.8 21.0 11.0 10.4 80.0- 4.0 1.7---- 1.6------------
1987-06-25 13.2 16.6 9.2 10.2 87.0- 6.7 2.0---- 2.3------------
1987-06-24 14.9 18.6 11.4 11.0 76.5- 5.0 2.0---- 13.0------------
1987-06-23 15.1 18.3 12.4 12.0 85.3- 6.7 2.0---- 1.8------------
1987-06-22 17.1 24.4 12.6 10.0 81.0- 5.3 1.3---- 2.9------------
1987-06-21 18.8 24.3 11.6 10.0 62.8- 0.3 0.7---- 0.0------------
1987-06-20 15.6 21.6 7.6 5.5 69.5- 2.3 2.3---- 0.0------------
1987-06-19 12.1 16.2 8.0 7.6 78.8- 5.7 4.7---- 0.6------------
1987-06-18 11.0 15.4 6.0 4.4 82.3- 2.7 2.3---- 1.2------------
1987-06-17 12.0 13.7 10.2 10.0 75.0- 5.3 5.3---- 0.0------------
1987-06-16 11.9 22.5 9.6 10.6 91.8- 8.0 5.7---- 8.5------------
653.4 ms

 

Źródłem pochodzenia danych jest Instytut Meteorologii i Gospodarki Wodnej – Państwowy Instytut Badawczy. Dane Instytutu Meteorologii i Gospodarki Wodnej – Państwowego Instytutu Badawczego zostały przetworzone.

Dane źródłowe można odnaleźć na stronie https://dane.imgw.pl